Time;durP1;ratioP1;P1;durP2;ratioP2;P2;SDS_P1;SDS_P2;PMS_P1;PMS_P2;Temp;Humidity;BMP_temperature;BMP_pressure;BME280_temperature;BME280_humidity;BME280_pressure;Samples;Min_cycle;Max_cycle;Signal;HPM_P1;HPM_P2
2022/03/27 00:01:24;;;;;;;10.50;7.07;;;;;;;10.26;68.40;102221.13;5093364;28;20024;-84
2022/03/27 00:03:50;;;;;;;10.38;7.35;;;;;;;10.24;68.78;102221.81;5097906;28;20028;-83
2022/03/27 00:06:15;;;;;;;8.85;6.97;;;;;;;10.45;68.90;102267.91;5113661;28;20036;-83
2022/03/27 00:08:41;;;;;;;11.10;7.53;;;;;;;10.48;68.58;102256.81;5114765;28;20106;-82
2022/03/27 00:11:25;;;;;;;12.13;7.30;;;;;;;10.33;68.63;102228.72;5114802;28;20106;-83
2022/03/27 00:13:52;;;;;;;11.43;7.50;;;;;;;10.30;68.37;102224.94;5114665;28;20774;-83
2022/03/27 00:16:18;;;;;;;13.00;7.50;;;;;;;10.42;68.54;102244.19;5112796;28;20042;-83
2022/03/27 00:18:43;;;;;;;9.35;7.25;;;;;;;10.42;68.39;102240.69;5114671;28;20032;-83
2022/03/27 00:21:10;;;;;;;9.63;6.95;;;;;;;10.33;68.83;102233.94;5106554;28;20548;-83
2022/03/27 00:23:35;;;;;;;;;;;;;;;10.49;68.28;102251.69;5090883;28;20024;-83
2022/03/27 00:26:02;;;;;;;10.40;7.13;;;;;;;10.35;68.54;102227.13;5109767;28;19969;-83
2022/03/27 00:28:32;;;;;;;11.43;7.75;;;;;;;10.44;68.56;102241.69;5104159;28;20034;-83
2022/03/27 00:31:04;;;;;;;11.02;7.38;;;;;;;10.38;68.45;102234.28;5096978;28;20434;-83
2022/03/27 00:33:31;;;;;;;11.73;7.43;;;;;;;10.25;68.79;102213.22;5096340;28;20023;-83
2022/03/27 00:35:57;;;;;;;9.85;7.25;;;;;;;10.21;68.74;102198.09;5113126;28;20489;-84
2022/03/27 00:38:25;;;;;;;10.27;7.22;;;;;;;10.12;68.88;102187.84;5104613;28;20081;-83
2022/03/27 00:40:50;;;;;;;8.65;6.90;;;;;;;10.37;68.60;102220.31;5108969;28;20489;-84
2022/03/27 00:43:17;;;;;;;11.55;7.13;;;;;;;10.43;68.53;102225.09;5113001;28;20030;-83
2022/03/27 00:45:43;;;;;;;9.95;6.88;;;;;;;10.13;68.44;102182.72;5112711;28;20109;-83
2022/03/27 00:48:10;;;;;;;11.23;7.63;;;;;;;9.98;68.54;102152.81;5111100;28;20489;-84
2022/03/27 00:50:36;;;;;;;9.82;6.85;;;;;;;10.35;68.45;102207.91;5112837;28;20063;-83
2022/03/27 00:53:02;;;;;;;11.38;7.82;;;;;;;10.16;68.36;102169.91;5112673;28;20128;-83
2022/03/27 00:55:27;;;;;;;12.10;7.88;;;;;;;10.17;68.78;102173.44;5112618;28;20035;-83
2022/03/27 00:57:55;;;;;;;11.60;7.75;;;;;;;10.18;68.76;102188.28;5106815;28;20409;-83
2022/03/27 01:00:42;;;;;;;11.85;7.50;;;;;;;10.41;68.73;102224.06;5107482;28;20130;-84
2022/03/27 01:03:23;;;;;;;10.50;7.15;;;;;;;10.35;68.72;102215.75;5113822;28;20031;-83
2022/03/27 01:05:49;;;;;;;10.07;7.30;;;;;;;10.21;68.59;102201.59;5112544;28;20024;-83
2022/03/27 01:08:16;;;;;;;10.18;7.22;;;;;;;10.38;68.79;102229.97;5112530;28;20031;-83
2022/03/27 01:10:42;;;;;;;10.00;7.20;;;;;;;10.22;68.50;102184.22;5102453;28;20161;-83
2022/03/27 01:13:12;;;;;;;10.32;7.10;;;;;;;10.36;68.66;102218.50;5092059;28;20028;-82
2022/03/27 01:15:53;;;;;;;10.52;7.28;;;;;;;10.37;68.88;102220.31;5092746;28;20035;-83
2022/03/27 01:18:22;;;;;;;9.98;7.30;;;;;;;10.28;68.81;102200.38;5092219;28;20056;-83
2022/03/27 01:20:48;;;;;;;10.05;7.05;;;;;;;10.36;68.74;102214.97;5092012;28;20057;-82
2022/03/27 01:23:14;;;;;;;11.63;7.30;;;;;;;10.34;68.54;102209.63;5092735;28;20107;-83
2022/03/27 01:25:40;;;;;;;;;;;;;;;10.41;68.70;102207.50;5092219;28;20036;-83
2022/03/27 01:28:08;;;;;;;9.90;7.20;;;;;;;10.08;68.77;102168.41;5091805;28;20024;-83
2022/03/27 01:30:34;;;;;;;9.48;6.85;;;;;;;10.16;68.75;102190.81;5091602;28;20077;-83
2022/03/27 01:33:00;;;;;;;10.55;7.43;;;;;;;10.22;68.87;102200.78;5092141;28;20062;-83
2022/03/27 01:35:26;;;;;;;11.60;6.97;;;;;;;10.28;68.94;102209.09;5091720;28;20052;-83
2022/03/27 01:37:51;;;;;;;12.00;7.45;;;;;;;10.34;68.56;102213.94;5091595;28;20030;-83
2022/03/27 01:40:17;;;;;;;9.27;6.65;;;;;;;10.34;68.72;102217.47;5092663;28;20054;-83
2022/03/27 01:42:44;;;;;;;11.52;6.95;;;;;;;10.33;68.84;102223.50;5105076;28;20034;-82
2022/03/27 01:45:10;;;;;;;10.35;7.00;;;;;;;10.33;68.77;102217.38;5090381;28;20479;-83
2022/03/27 01:47:36;;;;;;;10.48;7.18;;;;;;;10.21;69.00;102192.88;5091369;28;20024;-82
2022/03/27 01:50:04;;;;;;;10.13;7.25;;;;;;;10.22;68.67;102192.06;5091925;28;20059;-82
2022/03/27 01:52:29;;;;;;;10.15;7.32;;;;;;;10.29;68.65;102203.16;5085770;28;20404;-83
2022/03/27 01:54:55;;;;;;;10.32;7.18;;;;;;;9.99;68.48;102146.81;5094581;28;20088;-83
2022/03/27 01:57:21;;;;;;;9.65;7.05;;;;;;;10.32;68.43;102208.59;5112749;28;20077;-83
2022/03/27 01:59:47;;;;;;;9.82;6.80;;;;;;;10.25;68.88;102203.66;5111563;28;20019;-83
2022/03/27 02:02:13;;;;;;;9.32;6.85;;;;;;;10.25;68.86;102202.75;5112630;28;20107;-83
2022/03/27 02:04:38;;;;;;;10.40;7.20;;;;;;;10.14;68.39;102171.50;5099733;28;20107;-83
2022/03/27 02:07:05;;;;;;;10.38;7.07;;;;;;;10.15;68.72;102181.13;5091311;28;20051;-83
2022/03/27 02:09:31;;;;;;;8.77;6.70;;;;;;;9.98;68.55;102145.88;5097993;28;20395;-83
2022/03/27 02:11:56;;;;;;;10.27;7.10;;;;;;;10.13;68.88;102179.19;5111405;28;20027;-83
2022/03/27 02:14:22;;;;;;;10.05;6.70;;;;;;;10.03;68.45;102147.94;5112490;28;20051;-83
2022/03/27 02:16:48;;;;;;;9.95;6.90;;;;;;;9.74;68.53;102102.22;5099566;28;20036;-84
2022/03/27 02:19:13;;;;;;;11.27;6.88;;;;;;;10.15;68.69;102173.31;5090877;28;20036;-83
2022/03/27 02:21:41;;;;;;;9.90;6.68;;;;;;;10.25;68.79;102192.31;5090894;28;20036;-83
2022/03/27 02:24:08;;;;;;;11.68;7.05;;;;;;;10.17;68.83;102173.44;5090771;28;20085;-82
2022/03/27 02:26:34;;;;;;;9.15;6.75;;;;;;;10.28;68.58;102189.94;5103516;28;20039;-82
2022/03/27 02:29:00;;;;;;;8.55;6.47;;;;;;;10.12;68.61;102170.47;5112297;28;20618;-81
2022/03/27 02:31:25;;;;;;;9.80;6.55;;;;;;;10.26;68.62;102191.50;5111107;28;20039;-82
2022/03/27 02:33:51;;;;;;;9.27;6.75;;;;;;;10.27;68.66;102186.41;5112236;28;20417;-83
2022/03/27 02:36:17;;;;;;;9.90;6.82;;;;;;;10.22;68.78;102179.00;5100580;28;20539;-83
2022/03/27 02:38:44;;;;;;;9.57;6.82;;;;;;;10.25;68.68;102184.50;5091782;28;20048;-83
2022/03/27 02:41:10;;;;;;;10.60;7.00;;;;;;;9.85;68.57;102124.84;5091806;28;20020;-83
2022/03/27 02:43:38;;;;;;;8.93;6.80;;;;;;;10.09;68.77;102167.59;5090552;28;20043;-83
2022/03/27 02:46:05;;;;;;;9.75;6.82;;;;;;;10.21;68.47;102187.66;5090272;28;20047;-83
2022/03/27 02:48:31;;;;;;;8.95;6.55;;;;;;;10.07;68.86;102169.19;5100227;28;20047;-83
2022/03/27 02:50:57;;;;;;;8.80;6.72;;;;;;;9.89;68.59;102141.66;5112124;28;20061;-83
2022/03/27 02:53:23;;;;;;;9.73;6.90;;;;;;;10.23;68.63;102196.50;5110776;28;20028;-82
2022/03/27 02:55:48;;;;;;;11.13;7.30;;;;;;;10.16;68.88;102202.94;5111929;28;20016;-82
2022/03/27 02:58:14;;;;;;;10.85;7.05;;;;;;;10.05;68.36;102175.06;5111870;28;20039;-84
2022/03/27 03:00:41;;;;;;;9.57;6.68;;;;;;;10.21;68.24;102199.00;5103709;28;20035;-84
2022/03/27 03:03:07;;;;;;;9.10;6.53;;;;;;;10.12;68.66;102201.78;5094502;28;20055;-84
2022/03/27 03:05:34;;;;;;;10.38;7.20;;;;;;;10.12;68.77;102206.09;5095739;28;20020;-84
2022/03/27 03:08:01;;;;;;;10.73;6.95;;;;;;;10.13;68.55;102198.38;5078033;28;20035;-83
2022/03/27 03:10:29;;;;;;;10.95;7.57;;;;;;;10.17;68.81;102205.66;5104701;28;20016;-84
2022/03/27 03:12:56;;;;;;;9.63;7.00;;;;;;;10.03;68.53;102187.09;5106954;28;20481;-84
2022/03/27 03:15:23;;;;;;;10.68;7.45;;;;;;;9.66;68.59;102129.41;5094329;28;20051;-83
2022/03/27 03:17:49;;;;;;;10.48;6.82;;;;;;;10.02;68.54;102198.34;5095453;28;20040;-83
2022/03/27 03:20:16;;;;;;;10.60;7.28;;;;;;;10.09;68.48;102196.31;5094219;28;20119;-82
2022/03/27 03:22:42;;;;;;;11.85;7.38;;;;;;;10.04;68.52;102197.66;5095965;28;20032;-82
2022/03/27 03:25:09;;;;;;;9.93;6.82;;;;;;;10.10;68.65;102208.59;5114476;28;20033;-83
2022/03/27 03:27:36;;;;;;;10.23;7.57;;;;;;;10.08;68.63;102204.94;5113033;28;20084;-83
2022/03/27 03:30:04;;;;;;;11.40;7.50;;;;;;;10.01;68.93;102197.41;5099676;28;20020;-83
2022/03/27 03:32:30;;;;;;;11.48;7.95;;;;;;;9.67;68.67;102141.63;5104767;28;20089;-83
2022/03/27 03:34:55;;;;;;;10.48;7.50;;;;;;;9.77;68.60;102162.47;5094006;28;20029;-83
2022/03/27 03:37:23;;;;;;;12.13;8.15;;;;;;;9.81;68.33;102166.22;5094041;28;20047;-83
2022/03/27 03:39:48;;;;;;;12.95;7.90;;;;;;;9.52;68.50;102123.97;5095836;28;20024;-82
2022/03/27 03:42:14;;;;;;;12.45;7.63;;;;;;;10.05;68.75;102209.00;5095754;28;20053;-83
2022/03/27 03:44:41;;;;;;;10.77;7.75;;;;;;;10.04;68.76;102207.19;5095808;28;20070;-83
2022/03/27 03:47:07;;;;;;;11.63;7.65;;;;;;;10.04;68.66;102212.44;5101563;28;20027;-83
2022/03/27 03:49:33;;;;;;;11.95;7.57;;;;;;;9.72;68.84;102150.75;5105667;28;20020;-83
2022/03/27 03:51:58;;;;;;;9.93;7.50;;;;;;;9.96;68.42;102190.94;5104895;28;20036;-83
2022/03/27 03:54:24;;;;;;;10.32;7.55;;;;;;;9.87;68.74;102179.78;5114018;28;20076;-83
2022/03/27 03:56:51;;;;;;;12.05;8.98;;;;;;;9.49;68.72;102120.25;5096989;28;20134;-83
2022/03/27 03:59:17;;;;;;;10.90;7.38;;;;;;;9.73;68.89;102163.91;5093514;28;20458;-83
2022/03/27 04:01:43;;;;;;;10.95;7.75;;;;;;;9.54;68.42;102124.09;5076881;28;20024;-83
2022/03/27 04:04:09;;;;;;;12.02;7.70;;;;;;;9.86;68.82;102188.38;5093447;28;20517;-83
2022/03/27 04:06:34;;;;;;;12.13;7.90;;;;;;;9.72;68.82;102169.94;5094564;28;20027;-83
2022/03/27 04:09:00;;;;;;;11.27;7.72;;;;;;;9.81;68.38;102189.72;5112339;28;20288;-84
2022/03/27 04:11:25;;;;;;;12.10;8.27;;;;;;;9.48;68.60;102134.97;5113601;28;20031;-85
2022/03/27 04:13:51;;;;;;;11.90;7.97;;;;;;;9.84;68.32;102200.38;5112903;28;20037;-84
2022/03/27 04:16:17;;;;;;;12.05;7.82;;;;;;;9.86;68.46;102210.13;5114907;28;20114;-85
2022/03/27 04:18:43;;;;;;;10.90;8.02;;;;;;;9.96;68.55;102224.84;5113510;28;20030;-83
2022/03/27 04:21:09;;;;;;;11.75;7.78;;;;;;;9.93;68.88;102229.84;5114644;28;20390;-82
2022/03/27 04:23:36;;;;;;;10.60;7.55;;;;;;;9.95;68.25;102238.69;5110805;28;20034;-83
2022/03/27 04:26:03;;;;;;;11.48;8.05;;;;;;;9.84;68.50;102218.66;5092927;28;20103;-82
2022/03/27 04:28:29;;;;;;;12.02;8.20;;;;;;;9.93;68.79;102245.50;5093518;28;20404;-83
2022/03/27 04:30:55;;;;;;;;;;;;;;;9.97;68.55;102234.50;5104710;28;20020;-83
2022/03/27 04:33:20;;;;;;;11.45;7.78;;;;;;;9.60;68.66;102196.72;5092460;28;20392;-83
2022/03/27 04:35:46;;;;;;;10.48;7.30;;;;;;;9.51;68.74;102182.16;5094583;28;20020;-83
2022/03/27 04:38:12;;;;;;;12.10;7.97;;;;;;;9.87;68.68;102242.41;5095205;28;20028;-83
2022/03/27 04:40:37;;;;;;;13.07;8.65;;;;;;;9.84;68.67;102235.22;5100655;28;20028;-83
2022/03/27 04:43:03;;;;;;;13.23;8.77;;;;;;;9.61;68.99;102203.75;5101313;28;20027;-83
2022/03/27 04:45:29;;;;;;;11.63;8.30;;;;;;;9.83;69.06;102254.28;5110817;28;20842;-84
2022/03/27 04:47:55;;;;;;;10.43;7.50;;;;;;;9.86;69.05;102256.22;5103308;27;20024;-83
2022/03/27 04:50:21;;;;;;;11.45;7.57;;;;;;;9.52;68.93;102190.88;5109765;27;20042;-84
2022/03/27 04:52:46;;;;;;;9.65;7.15;;;;;;;9.63;68.57;102202.16;5106877;28;20027;-83
2022/03/27 04:55:12;;;;;;;11.05;7.88;;;;;;;9.63;68.65;102218.75;5103687;28;20040;-83
2022/03/27 04:57:39;;;;;;;12.23;7.95;;;;;;;9.40;69.06;102188.19;5094221;28;20508;-83
2022/03/27 05:00:10;;;;;;;10.20;7.35;;;;;;;9.57;68.80;102211.34;5092990;28;20082;-84
2022/03/27 05:02:40;;;;;;;10.63;7.72;;;;;;;9.82;68.85;102262.91;5110334;28;20029;-84
2022/03/27 05:05:07;;;;;;;11.82;8.38;;;;;;;9.67;68.82;102233.88;5103360;28;20024;-84
2022/03/27 05:07:35;;;;;;;11.73;7.93;;;;;;;9.72;68.86;102247.28;5110074;28;20705;-84
2022/03/27 05:10:01;;;;;;;9.50;7.40;;;;;;;9.57;68.71;102223.47;5106415;28;20032;-83
2022/03/27 05:12:26;;;;;;;11.70;7.70;;;;;;;9.50;68.66;102216.84;5103291;28;20084;-83
2022/03/27 05:14:52;;;;;;;12.60;8.27;;;;;;;9.85;68.68;102267.44;5110374;28;20524;-83
2022/03/27 05:17:20;;;;;;;11.77;7.75;;;;;;;9.67;68.84;102241.69;5112317;28;20119;-83
2022/03/27 05:19:46;;;;;;;10.77;7.82;;;;;;;9.84;69.02;102279.59;5094415;28;20074;-83
2022/03/27 05:22:12;;;;;;;13.40;8.23;;;;;;;9.55;68.82;102228.56;5108587;28;20051;-83
2022/03/27 05:24:37;;;;;;;10.70;7.60;;;;;;;9.81;68.89;102270.59;5109767;28;20541;-83
2022/03/27 05:27:05;;;;;;;10.80;7.25;;;;;;;9.38;68.59;102189.78;5102727;28;20114;-83
2022/03/27 05:29:33;;;;;;;10.68;7.53;;;;;;;9.38;68.37;102195.88;5109854;28;20035;-83
2022/03/27 05:31:59;;;;;;;10.32;7.63;;;;;;;9.84;68.65;102276.97;5108513;28;20054;-84
2022/03/27 05:34:25;;;;;;;11.13;7.75;;;;;;;9.47;68.66;102215.69;5112307;28;20103;-83
2022/03/27 05:36:51;;;;;;;10.65;7.40;;;;;;;9.85;68.72;102280.50;5099252;28;20031;-83
2022/03/27 05:39:17;;;;;;;10.43;7.53;;;;;;;9.86;69.00;102287.53;5110015;28;20024;-82
2022/03/27 05:41:43;;;;;;;11.07;8.10;;;;;;;9.56;68.67;102239.88;5109926;28;20481;-84
2022/03/27 05:44:09;;;;;;;10.45;7.68;;;;;;;9.58;68.83;102247.03;5110079;28;20438;-84
2022/03/27 05:46:35;;;;;;;10.52;7.65;;;;;;;9.84;68.80;102287.41;5104624;28;20112;-83
2022/03/27 05:49:00;;;;;;;12.35;7.97;;;;;;;9.83;68.82;102287.28;5101441;28;20028;-81
2022/03/27 05:51:26;;;;;;;9.55;7.45;;;;;;;9.83;68.84;102289.91;5108274;28;20052;-82
2022/03/27 05:53:52;;;;;;;11.68;7.60;;;;;;;9.81;68.96;102283.63;5095254;28;20508;-82
2022/03/27 05:56:17;;;;;;;10.70;7.38;;;;;;;9.69;68.70;102253.13;5107807;28;20028;-82
2022/03/27 05:58:43;;;;;;;11.48;8.30;;;;;;;9.64;69.14;102253.56;5093615;28;20135;-81
2022/03/27 06:01:09;;;;;;;12.43;8.43;;;;;;;9.66;68.22;102267.66;5111852;28;20042;-81
2022/03/27 06:03:34;;;;;;;12.55;7.68;;;;;;;9.84;68.21;102283.88;5110888;28;20027;-81
2022/03/27 06:06:00;;;;;;;12.10;8.35;;;;;;;9.81;68.14;102279.31;5106171;28;20157;-81
2022/03/27 06:08:26;;;;;;;11.60;7.80;;;;;;;9.85;67.93;102289.22;5104913;28;20035;-81
2022/03/27 06:10:52;;;;;;;11.30;7.57;;;;;;;9.81;68.15;102267.97;5092210;28;20481;-81
2022/03/27 06:13:19;;;;;;;9.98;7.15;;;;;;;9.89;67.97;102286.09;5094156;28;20497;-81
2022/03/27 06:15:46;;;;;;;10.70;7.10;;;;;;;9.91;68.13;102284.50;5104903;28;20489;-82
2022/03/27 06:18:11;;;;;;;10.95;7.60;;;;;;;9.85;68.08;102264.84;5091774;28;20028;-82
2022/03/27 06:20:38;;;;;;;10.00;6.95;;;;;;;9.92;68.07;102274.97;5109920;28;20028;-82
2022/03/27 06:23:06;;;;;;;9.07;6.75;;;;;;;9.92;68.32;102275.88;5098165;28;20024;-81
2022/03/27 06:25:33;;;;;;;10.43;7.32;;;;;;;9.78;68.52;102250.38;5095136;28;20028;-82
2022/03/27 06:27:59;;;;;;;12.15;7.97;;;;;;;9.86;68.58;102264.94;5107047;28;20032;-83
2022/03/27 06:30:28;;;;;;;9.73;7.25;;;;;;;9.95;68.48;102278.75;5091008;28;20823;-82
2022/03/27 06:32:53;;;;;;;10.68;7.32;;;;;;;9.96;68.25;102282.25;5090593;28;20129;-83
2022/03/27 06:35:21;;;;;;;10.73;7.50;;;;;;;9.97;68.33;102278.88;5091792;28;20035;-82
2022/03/27 06:37:47;;;;;;;10.65;7.18;;;;;;;9.92;68.35;102265.44;5075639;28;20039;-83
2022/03/27 06:40:14;;;;;;;9.45;6.85;;;;;;;9.97;68.44;102263.22;5095081;28;20028;-83
2022/03/27 06:42:41;;;;;;;11.70;7.85;;;;;;;10.01;68.33;102266.97;5103516;28;20024;-83
2022/03/27 06:45:07;;;;;;;11.27;7.95;;;;;;;9.94;67.92;102250.81;5098463;28;20562;-82
2022/03/27 06:47:34;;;;;;;14.15;8.55;;;;;;;9.82;67.95;102218.53;5090245;28;20043;-83
2022/03/27 06:50:04;;;;;;;10.68;7.70;;;;;;;9.93;67.97;102241.19;5090375;28;20032;-82
2022/03/27 06:52:31;;;;;;;12.15;8.48;;;;;;;9.96;67.76;102240.50;5090384;28;20085;-82
2022/03/27 06:54:57;;;;;;;11.80;7.93;;;;;;;10.03;68.16;102261.06;5091624;28;20046;-82
2022/03/27 06:57:23;;;;;;;11.15;8.00;;;;;;;9.89;68.22;102228.69;5096251;28;20028;-84
2022/03/27 07:05:18;;;;;;;10.43;7.13;;;;;;;9.99;67.95;102238.16;5091434;28;20039;-85
2022/03/27 07:07:44;;;;;;;10.52;7.55;;;;;;;9.95;67.85;102234.38;5090368;28;20028;-84
2022/03/27 07:10:16;;;;;;;12.10;7.60;;;;;;;10.04;68.15;102243.75;5091808;28;20038;-84
2022/03/27 07:12:43;;;;;;;11.55;7.65;;;;;;;10.13;67.68;102253.19;5107042;28;20114;-84
2022/03/27 07:15:08;;;;;;;;;;;;;;;10.16;68.16;102257.78;5094473;28;20035;-84
2022/03/27 07:17:43;;;;;;;11.90;7.68;;;;;;;10.14;67.91;102254.13;5090121;28;20450;-84
2022/03/27 07:20:09;;;;;;;12.52;8.00;;;;;;;10.05;68.25;102243.84;5089864;28;20089;-84
2022/03/27 07:22:35;;;;;;;10.88;7.43;;;;;;;10.02;68.07;102229.66;5091242;28;20404;-85
2022/03/27 07:25:02;;;;;;;13.23;8.18;;;;;;;10.01;67.95;102226.09;5091303;28;20115;-84
2022/03/27 07:27:27;;;;;;;11.05;7.78;;;;;;;10.09;67.95;102247.63;5092215;28;20111;-84
2022/03/27 07:29:54;;;;;;;10.32;7.30;;;;;;;9.89;67.67;102202.56;5090080;28;20234;-83
2022/03/27 07:32:19;;;;;;;;;;;;;;;10.22;68.30;102260.84;5108238;28;20062;-85
2022/03/27 07:34:45;;;;;;;12.23;8.05;;;;;;;9.83;68.12;102198.56;5101395;28;20433;-84
2022/03/27 07:37:11;;;;;;;11.68;8.15;;;;;;;9.96;68.15;102217.03;5073069;28;20491;-84
2022/03/27 07:39:36;;;;;;;12.10;7.90;;;;;;;10.17;68.13;102262.19;5090852;28;20109;-84
2022/03/27 07:42:02;;;;;;;11.90;7.88;;;;;;;10.18;68.52;102267.53;5098306;28;20032;-85
2022/03/27 07:44:28;;;;;;;11.40;7.50;;;;;;;9.74;68.50;102172.66;5091767;28;20031;-85
2022/03/27 07:46:58;;;;;;;10.52;6.85;;;;;;;10.48;68.14;102241.16;5092387;28;20048;-85
2022/03/27 07:49:24;;;;;;;10.07;6.47;;;;;;;10.89;66.81;102254.78;5097209;28;20020;-87
2022/03/27 07:51:50;;;;;;;12.10;6.38;;;;;;;11.12;66.13;102246.06;5100167;28;20024;-87
2022/03/27 07:54:15;;;;;;;14.20;6.35;;;;;;;10.86;66.15;102241.50;5099248;28;20033;-85
2022/03/27 07:56:41;;;;;;;18.23;6.80;;;;;;;10.52;67.45;102227.50;5101899;28;20110;-85
2022/03/27 07:59:07;;;;;;;12.75;6.53;;;;;;;10.49;68.39;102236.03;5099000;28;20397;-84
2022/03/27 08:01:33;;;;;;;13.60;6.75;;;;;;;10.62;68.13;102258.78;5093902;28;20030;-85
2022/03/27 08:04:00;;;;;;;11.33;7.37;;;;;;;10.42;68.36;102225.91;5091860;28;20036;-86
2022/03/27 08:06:25;;;;;;;12.02;7.30;;;;;;;10.57;68.88;102244.47;5095902;28;20370;-86
2022/03/27 08:08:51;;;;;;;10.85;7.00;;;;;;;10.33;68.87;102215.66;5094103;28;20485;-86
2022/03/27 08:11:17;;;;;;;11.18;7.18;;;;;;;10.49;68.96;102238.63;5094249;28;20039;-87
2022/03/27 08:13:43;;;;;;;13.23;7.50;;;;;;;10.64;69.89;102207.56;5104938;28;20028;-87
2022/03/27 08:16:09;;;;;;;13.63;7.32;;;;;;;10.47;69.39;102210.59;5093268;28;20036;-86
2022/03/27 08:18:34;;;;;;;13.07;7.85;;;;;;;10.71;68.16;102241.22;5088286;28;20092;-87
2022/03/27 08:21:03;;;;;;;14.32;7.78;;;;;;;10.57;68.58;102226.19;5109741;28;20035;-87
2022/03/27 08:23:29;;;;;;;13.65;7.78;;;;;;;10.59;68.82;102243.78;5098616;28;20036;-87
2022/03/27 08:28:39;;;;;;;15.35;8.30;;;;;;;10.56;69.41;102230.50;5104184;28;20140;-86
2022/03/27 08:31:05;;;;;;;14.40;8.57;;;;;;;10.47;68.84;102215.81;5095157;28;20416;-86
2022/03/27 08:33:31;;;;;;;14.85;9.50;;;;;;;10.39;68.60;102199.53;5114540;28;20028;-86
2022/03/27 08:35:57;;;;;;;12.50;8.50;;;;;;;10.53;68.07;102214.59;5107548;28;20031;-86
2022/03/27 08:38:23;;;;;;;16.67;9.10;;;;;;;10.42;67.60;102178.91;5092538;28;20270;-86
2022/03/27 08:40:50;;;;;;;18.85;9.48;;;;;;;10.53;68.29;102190.16;5101359;28;20020;-86
2022/03/27 08:43:16;;;;;;;15.38;9.05;;;;;;;10.65;68.68;102213.72;5095297;28;20043;-85
2022/03/27 08:45:44;;;;;;;16.20;9.38;;;;;;;10.60;68.29;102187.22;5091273;28;20051;-85
2022/03/27 08:48:11;;;;;;;14.63;9.05;;;;;;;10.63;69.08;102207.47;5108474;28;20027;-86
2022/03/27 08:51:06;;;;;;;17.08;9.50;;;;;;;10.80;68.75;102225.34;5101306;28;20390;-85
2022/03/27 08:54:03;;;;;;;17.40;9.60;;;;;;;10.88;68.16;102221.63;5096001;28;20114;-85
2022/03/27 08:56:30;;;;;;;13.55;8.93;;;;;;;10.82;69.51;102212.41;5112547;28;20062;-86
2022/03/27 08:58:59;;;;;;;17.85;10.02;;;;;;;10.76;69.87;102199.78;5104444;28;20100;-86
2022/03/27 09:01:25;;;;;;;17.80;9.88;;;;;;;10.77;69.95;102183.28;5112097;28;20027;-85
2022/03/27 09:03:51;;;;;;;17.38;10.00;;;;;;;10.84;69.57;102189.88;5113567;28;20443;-85
2022/03/27 09:06:17;;;;;;;17.58;9.77;;;;;;;10.89;70.67;102186.81;5112050;28;20489;-86
2022/03/27 09:08:42;;;;;;;16.45;9.45;;;;;;;10.84;69.23;102192.50;5113616;28;20485;-85
2022/03/27 09:11:17;;;;;;;16.13;9.63;;;;;;;10.78;68.87;102172.97;5096294;28;20153;-86
2022/03/27 09:13:47;;;;;;;19.83;10.15;;;;;;;10.99;69.81;102204.13;5111229;28;20468;-85
2022/03/27 09:16:13;;;;;;;15.30;9.43;;;;;;;10.87;69.07;102179.66;5112291;28;20114;-86
2022/03/27 09:18:52;;;;;;;18.13;9.80;;;;;;;11.02;70.86;102201.72;5112031;28;20114;-85
2022/03/27 09:21:22;;;;;;;17.13;10.88;;;;;;;11.04;69.31;102200.13;5113012;28;20030;-85
2022/03/27 09:23:55;;;;;;;19.02;10.55;;;;;;;10.97;69.50;102175.25;5113418;28;20023;-85
2022/03/27 09:26:22;;;;;;;18.73;9.90;;;;;;;11.11;69.23;102184.13;5112196;28;20103;-85
2022/03/27 09:28:56;;;;;;;15.73;9.77;;;;;;;11.10;67.82;102192.75;5111752;28;20601;-86
2022/03/27 09:31:26;;;;;;;15.88;9.77;;;;;;;11.09;68.74;102174.34;5095640;28;20096;-86
2022/03/27 09:34:02;;;;;;;17.30;9.77;;;;;;;11.08;69.90;102178.66;5112228;28;20553;-86
2022/03/27 09:36:33;;;;;;;16.92;9.52;;;;;;;11.05;69.02;102175.84;5112121;28;20058;-85
2022/03/27 09:39:26;;;;;;;20.40;10.25;;;;;;;11.11;67.55;102172.75;5091623;28;20028;-86
2022/03/27 09:41:54;;;;;;;16.33;9.10;;;;;;;11.14;67.99;102162.53;5092734;28;20413;-85
2022/03/27 09:44:23;;;;;;;16.02;9.88;;;;;;;11.14;68.11;102171.28;5074784;28;20031;-86
2022/03/27 09:47:10;;;;;;;15.27;9.15;;;;;;;11.07;69.34;102155.94;5082414;28;20047;-86
2022/03/27 09:49:37;;;;;;;14.25;9.38;;;;;;;11.21;68.97;102173.53;5110738;28;20035;-86
2022/03/27 09:52:09;;;;;;;13.65;8.68;;;;;;;11.12;69.50;102153.66;5100673;28;20401;-86
2022/03/27 09:54:45;;;;;;;15.82;9.05;;;;;;;11.24;70.01;102161.50;5106578;28;20497;-86
2022/03/27 09:57:30;;;;;;;13.10;8.93;;;;;;;11.26;70.39;102165.13;5104718;28;20024;-86
2022/03/27 10:00:18;;;;;;;13.43;8.70;;;;;;;11.27;70.47;102165.25;5095132;28;20036;-86
2022/03/27 10:02:44;;;;;;;;;;;;;;;11.29;69.27;102168.88;5096548;28;20212;-87
2022/03/27 10:05:14;;;;;;;15.80;9.32;;;;;;;11.06;70.24;102125.34;5108585;28;20023;-86
2022/03/27 10:07:48;;;;;;;14.30;8.77;;;;;;;11.16;68.56;102137.41;5101943;28;20692;-86
2022/03/27 10:10:18;;;;;;;13.55;8.73;;;;;;;11.28;69.65;102161.84;5089409;28;20028;-86
2022/03/27 10:12:46;;;;;;;16.02;8.43;;;;;;;11.23;69.79;102147.50;5105455;28;20412;-86
2022/03/27 10:15:17;;;;;;;14.05;8.73;;;;;;;11.20;70.78;102139.47;5110204;28;20042;-86
2022/03/27 10:17:46;;;;;;;14.50;8.77;;;;;;;11.20;70.54;102140.34;5110093;28;20027;-86
2022/03/27 10:20:16;;;;;;;14.10;9.00;;;;;;;11.37;70.88;102178.22;5110134;28;20035;-86
2022/03/27 10:22:47;;;;;;;14.65;9.07;;;;;;;11.28;69.26;102150.47;5093185;28;20119;-86
2022/03/27 10:25:16;;;;;;;13.82;8.10;;;;;;;11.07;67.18;102114.13;5109708;28;20030;-86
2022/03/27 10:27:44;;;;;;;12.88;8.20;;;;;;;11.36;70.27;102151.94;5092936;28;20515;-85
2022/03/27 10:30:12;;;;;;;14.88;8.05;;;;;;;11.51;71.02;102171.34;5110369;28;20019;-85
2022/03/27 10:32:39;;;;;;;15.25;8.57;;;;;;;11.37;68.21;102145.91;5110329;28;20054;-85
2022/03/27 10:35:14;;;;;;;13.07;8.07;;;;;;;11.55;68.57;102159.41;5111512;28;20027;-85
2022/03/27 10:38:08;;;;;;;14.48;8.68;;;;;;;11.56;66.95;102156.91;5110563;28;20040;-85
2022/03/27 10:40:43;;;;;;;13.98;7.90;;;;;;;11.56;68.56;102164.75;5111603;28;20027;-85
2022/03/27 10:43:11;;;;;;;20.60;8.32;;;;;;;12.01;69.48;102163.63;5110362;28;20023;-85
2022/03/27 10:45:37;;;;;;;20.70;8.20;;;;;;;12.61;70.58;102159.00;5109939;28;20047;-84
2022/03/27 10:48:14;;;;;;;18.52;7.68;;;;;;;12.83;68.74;102159.66;5104061;28;20020;-83
2022/03/27 10:50:51;;;;;;;22.33;8.10;;;;;;;13.10;65.77;102143.97;5101566;28;20028;-85
2022/03/27 10:53:17;;;;;;;;;;;;;;;12.85;66.73;102151.91;5111145;28;20024;-84
2022/03/27 10:55:45;;;;;;;16.05;7.35;;;;;;;12.43;68.38;102150.81;5106222;28;19912;-84
2022/03/27 10:58:28;;;;;;;16.75;7.90;;;;;;;12.18;69.07;102133.38;5093945;28;20035;-85
2022/03/27 11:00:55;;;;;;;18.75;7.88;;;;;;;12.19;69.03;102143.09;5102147;28;20036;-85
2022/03/27 11:03:39;;;;;;;;;;;;;;;12.15;69.31;102148.91;5090490;28;20031;-85
2022/03/27 11:06:04;;;;;;;16.73;7.68;;;;;;;12.04;68.60;102128.91;5104886;28;19959;-84
2022/03/27 11:08:30;;;;;;;17.08;7.28;;;;;;;12.08;68.62;102138.78;5110350;28;20111;-84
2022/03/27 11:10:59;;;;;;;15.87;7.80;;;;;;;12.02;68.37;102139.28;5100085;28;20034;-85
2022/03/27 11:13:25;;;;;;;14.00;7.32;;;;;;;12.05;68.48;102130.72;5110369;28;20272;-84
2022/03/27 11:16:12;;;;;;;18.02;7.28;;;;;;;12.06;67.03;102135.16;5103578;28;20020;-84
2022/03/27 11:18:43;;;;;;;17.83;7.43;;;;;;;11.94;67.83;102122.13;5098845;28;20484;-85
2022/03/27 11:21:13;;;;;;;20.23;8.23;;;;;;;12.04;68.02;102139.38;5109880;28;20019;-84
2022/03/27 11:23:40;;;;;;;16.17;7.30;;;;;;;11.90;68.39;102124.44;5109636;28;20031;-85
2022/03/27 11:26:21;;;;;;;12.38;6.57;;;;;;;11.99;68.72;102144.28;5097449;28;20027;-84
2022/03/27 11:28:52;;;;;;;16.90;7.50;;;;;;;11.97;69.11;102195.63;5114335;28;20026;-83
2022/03/27 11:31:21;;;;;;;19.52;7.57;;;;;;;11.86;68.92;102159.00;5114462;28;20024;-84
2022/03/27 11:34:14;;;;;;;18.55;7.40;;;;;;;12.00;69.50;102187.06;5097177;28;20020;-84